Time;durP1;ratioP1;P1;durP2;ratioP2;P2;SDS_P1;SDS_P2;PMS_P1;PMS_P2;Temp;Humidity;BMP_temperature;BMP_pressure;BME280_temperature;BME280_humidity;BME280_pressure;Samples;Min_cycle;Max_cycle;Signal;HPM_P1;HPM_P2
2022/08/04 00:01:43;;;;;;;6.35;2.45;;;26.60;97.70;;;;;;5008782;28;20038;-95
2022/08/04 00:04:28;;;;;;;6.88;2.92;;;26.50;97.80;;;;;;5020010;28;20037;-95
2022/08/04 00:07:20;;;;;;;7.53;2.90;;;26.50;97.70;;;;;;5017782;28;20024;-96
2022/08/04 00:10:01;;;;;;;5.72;3.25;;;26.50;97.80;;;;;;5004387;28;20054;-93
2022/08/04 00:12:32;;;;;;;6.63;3.03;;;26.40;97.80;;;;;;5033191;28;20029;-94
2022/08/04 00:15:01;;;;;;;4.53;2.92;;;26.40;97.90;;;;;;4995667;28;20034;-94
2022/08/04 00:17:46;;;;;;;5.43;2.90;;;26.40;97.90;;;;;;5018462;28;20022;-95
2022/08/04 00:20:20;;;;;;;6.38;2.60;;;26.30;97.90;;;;;;5005595;28;20486;-95
2022/08/04 00:22:50;;;;;;;4.70;3.03;;;26.30;98.00;;;;;;5038646;28;20026;-94
2022/08/04 00:25:43;;;;;;;5.43;2.85;;;26.20;97.90;;;;;;5014192;28;20030;-96
2022/08/04 00:28:11;;;;;;;4.38;2.88;;;26.20;98.00;;;;;;5007922;28;20038;-94
2022/08/04 00:30:47;;;;;;;5.82;2.88;;;26.20;98.00;;;;;;5040423;28;20013;-94
2022/08/04 00:33:19;;;;;;;5.47;2.90;;;26.10;98.00;;;;;;5025563;28;20109;-95
2022/08/04 00:35:49;;;;;;;6.70;3.15;;;26.20;97.90;;;;;;5009166;28;20097;-94
2022/08/04 00:38:16;;;;;;;5.28;2.83;;;26.10;97.70;;;;;;5018313;28;20069;-94
2022/08/04 00:41:21;;;;;;;6.13;3.50;;;26.10;97.60;;;;;;5030782;28;20056;-92
2022/08/04 00:44:02;;;;;;;8.02;3.30;;;26.00;97.00;;;;;;5017257;28;20036;-93
2022/08/04 00:46:52;;;;;;;4.43;2.80;;;26.00;97.10;;;;;;5017463;28;20030;-93
2022/08/04 00:49:27;;;;;;;5.93;2.95;;;26.00;96.90;;;;;;5016972;28;20030;-92
2022/08/04 00:52:08;;;;;;;7.03;3.17;;;25.90;96.80;;;;;;5016921;28;20096;-92
2022/08/04 00:54:43;;;;;;;6.28;3.13;;;25.90;97.00;;;;;;5016836;28;20125;-92
2022/08/04 00:57:37;;;;;;;9.95;3.75;;;25.90;97.10;;;;;;5017146;28;20022;-93
2022/08/04 01:00:10;;;;;;;6.47;2.83;;;25.90;97.30;;;;;;5017096;28;20026;-92
2022/08/04 01:02:53;;;;;;;7.07;3.58;;;25.90;97.40;;;;;;5017266;28;20030;-92
2022/08/04 01:05:41;;;;;;;5.30;3.28;;;25.80;97.50;;;;;;5016788;28;20029;-92
2022/08/04 01:08:34;;;;;;;7.18;3.20;;;25.80;97.70;;;;;;5016600;28;20033;-92
2022/08/04 01:11:00;;;;;;;9.05;3.42;;;25.80;97.60;;;;;;5016538;28;20033;-93
2022/08/04 01:13:55;;;;;;;6.85;3.20;;;25.80;97.70;;;;;;5016474;28;20022;-92
2022/08/04 01:16:25;;;;;;;7.13;3.53;;;25.80;98.00;;;;;;5032250;28;20474;-92
2022/08/04 01:19:04;;;;;;;6.75;3.40;;;25.70;98.00;;;;;;5017808;28;20593;-92
2022/08/04 01:22:15;;;;;;;7.43;3.42;;;25.70;98.10;;;;;;5016337;28;20026;-92
2022/08/04 01:25:03;;;;;;;4.45;2.97;;;25.60;97.80;;;;;;5019847;28;20454;-92
2022/08/04 01:27:38;;;;;;;5.82;3.30;;;25.60;98.00;;;;;;5026531;28;20121;-90
2022/08/04 01:30:04;;;;;;;6.15;3.50;;;25.60;97.90;;;;;;5018853;28;20473;-91
2022/08/04 01:32:41;;;;;;;6.25;3.35;;;25.50;97.80;;;;;;5017710;28;20033;-90
2022/08/04 01:35:34;;;;;;;7.25;3.55;;;25.50;97.70;;;;;;5017320;28;20033;-91
2022/08/04 01:38:23;;;;;;;5.78;3.40;;;25.50;97.60;;;;;;5016455;28;20053;-90
2022/08/04 01:40:56;;;;;;;8.75;3.50;;;25.40;97.20;;;;;;5017307;28;20025;-92
2022/08/04 01:43:23;;;;;;;7.38;3.50;;;25.40;97.40;;;;;;5018488;28;20174;-91
2022/08/04 01:45:54;;;;;;;5.88;3.10;;;25.40;97.40;;;;;;5033571;28;20022;-91
2022/08/04 01:48:26;;;;;;;6.22;3.20;;;25.40;97.30;;;;;;5034632;28;20033;-91
2022/08/04 01:51:05;;;;;;;9.23;3.47;;;25.40;97.40;;;;;;5017971;28;20034;-92
2022/08/04 01:53:34;;;;;;;6.65;3.30;;;25.40;97.50;;;;;;5015894;28;20034;-91
2022/08/04 01:56:06;;;;;;;6.53;3.35;;;25.30;97.30;;;;;;5015826;28;20108;-92
2022/08/04 01:58:40;;;;;;;5.53;2.92;;;25.30;97.50;;;;;;5016040;28;20607;-92
2022/08/04 02:01:11;;;;;;;10.55;3.35;;;25.30;97.60;;;;;;5016700;28;20096;-92
2022/08/04 02:03:43;;;;;;;5.15;3.10;;;25.30;97.50;;;;;;5016843;28;20133;-92
2022/08/04 02:06:14;;;;;;;8.30;3.58;;;25.20;97.20;;;;;;5017894;28;20081;-91
2022/08/04 02:08:55;;;;;;;5.13;3.03;;;25.20;97.20;;;;;;5015976;28;20121;-91
2022/08/04 02:11:22;;;;;;;6.35;3.30;;;25.20;97.10;;;;;;5016398;28;20089;-92
2022/08/04 02:14:44;;;;;;;7.40;3.40;;;25.20;97.20;;;;;;5016231;28;20096;-92
2022/08/04 02:17:21;;;;;;;5.05;3.33;;;25.10;97.00;;;;;;5016511;28;20045;-91
2022/08/04 02:20:00;;;;;;;5.43;3.13;;;25.10;97.00;;;;;;5016388;28;20050;-93
2022/08/04 02:22:30;;;;;;;5.65;3.20;;;25.10;97.30;;;;;;5016276;28;20026;-93
2022/08/04 02:25:13;;;;;;;5.75;3.17;;;25.10;97.30;;;;;;5017527;28;20026;-92
2022/08/04 02:28:11;;;;;;;6.55;3.30;;;25.10;97.30;;;;;;5016072;28;20462;-92
2022/08/04 02:30:51;;;;;;;6.70;2.70;;;25.00;97.30;;;;;;5016297;28;20073;-92
2022/08/04 02:33:25;;;;;;;4.53;2.88;;;25.00;97.40;;;;;;5016006;28;20028;-89
2022/08/04 02:36:00;;;;;;;5.22;3.00;;;25.00;97.40;;;;;;5016112;28;20026;-92
2022/08/04 02:38:55;;;;;;;6.38;2.80;;;24.90;97.10;;;;;;5014782;28;20044;-92
2022/08/04 02:41:23;;;;;;;6.32;2.92;;;24.90;97.10;;;;;;5014788;28;20171;-91
2022/08/04 02:43:51;;;;;;;7.00;3.55;;;24.90;97.10;;;;;;5015104;28;20037;-93
2022/08/04 02:46:21;;;;;;;6.28;3.20;;;24.90;97.00;;;;;;5016432;28;20030;-92
2022/08/04 02:48:50;;;;;;;7.72;3.53;;;24.90;97.00;;;;;;5015140;28;20041;-92
2022/08/04 02:51:19;;;;;;;4.95;3.00;;;24.80;97.20;;;;;;5015766;28;20026;-91
2022/08/04 02:53:45;;;;;;;7.70;3.70;;;24.80;97.40;;;;;;5014884;28;20022;-92
2022/08/04 02:56:18;;;;;;;10.38;3.63;;;24.80;97.60;;;;;;5014594;28;20033;-91
2022/08/04 02:58:50;;;;;;;6.28;3.45;;;24.80;97.60;;;;;;5014681;28;20021;-91
2022/08/04 03:01:25;;;;;;;5.35;3.22;;;24.80;97.70;;;;;;5015721;28;20026;-92
2022/08/04 03:04:09;;;;;;;7.68;3.47;;;24.70;97.70;;;;;;5015555;28;20025;-92
2022/08/04 03:06:53;;;;;;;5.72;3.58;;;24.70;97.80;;;;;;5014156;28;20481;-93
2022/08/04 03:09:52;;;;;;;7.95;3.22;;;24.70;98.00;;;;;;5014377;28;20042;-92
2022/08/04 03:12:26;;;;;;;7.13;3.25;;;24.60;98.10;;;;;;5013846;28;20029;-91
2022/08/04 03:15:14;;;;;;;10.60;3.78;;;24.60;98.10;;;;;;5014635;28;20026;-90
2022/08/04 03:18:17;;;;;;;6.45;2.90;;;24.60;98.20;;;;;;5014537;28;20053;-92
2022/08/04 03:21:01;;;;;;;6.53;3.50;;;24.50;98.20;;;;;;5014067;28;20026;-93
2022/08/04 03:23:36;;;;;;;6.55;3.30;;;24.50;98.40;;;;;;5015280;28;20025;-91
2022/08/04 03:26:32;;;;;;;8.27;3.50;;;24.50;98.40;;;;;;5015101;28;20030;-92
2022/08/04 03:29:26;;;;;;;6.95;3.20;;;24.40;98.60;;;;;;5014336;28;20095;-92
2022/08/04 03:31:57;;;;;;;7.60;3.35;;;24.40;98.50;;;;;;5013676;28;20056;-92
2022/08/04 03:35:03;;;;;;;6.50;3.58;;;24.40;98.30;;;;;;5014141;28;20045;-92
2022/08/04 03:37:50;;;;;;;6.03;3.03;;;24.30;98.60;;;;;;5013642;28;20050;-92
2022/08/04 03:40:30;;;;;;;6.30;2.97;;;24.30;98.70;;;;;;5013919;28;20463;-92
2022/08/04 03:43:04;;;;;;;5.10;3.00;;;24.30;98.70;;;;;;5013687;28;20029;-93
2022/08/04 03:46:15;;;;;;;7.47;2.88;;;24.20;98.80;;;;;;5014084;28;20117;-91
2022/08/04 03:49:17;;;;;;;6.75;2.80;;;24.20;98.90;;;;;;5014964;28;20026;-92
2022/08/04 03:55:21;;;;;;;5.65;2.83;;;24.10;98.80;;;;;;5021378;28;20551;-92
2022/08/04 03:57:56;;;;;;;8.38;2.63;;;24.10;98.90;;;;;;5020201;28;20524;-92
2022/08/04 04:00:35;;;;;;;5.75;2.97;;;24.10;98.80;;;;;;5021546;28;20030;-93
2022/08/04 04:03:21;;;;;;;7.70;3.20;;;24.00;98.60;;;;;;5020283;28;20030;-92
2022/08/04 04:06:30;;;;;;;5.85;2.58;;;24.00;98.70;;;;;;5021356;28;20113;-92
2022/08/04 04:09:10;;;;;;;6.65;3.00;;;24.00;98.70;;;;;;5020651;28;20030;-92
2022/08/04 04:11:56;;;;;;;8.82;3.08;;;23.90;98.70;;;;;;5021339;28;20030;-92
2022/08/04 04:14:37;;;;;;;5.95;3.00;;;23.90;98.70;;;;;;5036702;28;20045;-91
2022/08/04 04:17:14;;;;;;;7.75;3.13;;;23.90;98.70;;;;;;5020203;28;20124;-92
2022/08/04 04:19:58;;;;;;;6.15;2.67;;;23.90;98.70;;;;;;5021388;28;20572;-91
2022/08/04 04:22:43;;;;;;;9.40;3.10;;;23.80;98.70;;;;;;5020275;28;20038;-92
2022/08/04 04:25:28;;;;;;;8.77;2.83;;;23.80;98.70;;;;;;5020358;28;20022;-91
2022/08/04 04:28:21;;;;;;;6.55;3.10;;;23.80;98.90;;;;;;5021761;28;20473;-91
2022/08/04 04:31:12;;;;;;;5.70;2.58;;;23.70;99.40;;;;;;5021071;28;20030;-91
2022/08/04 04:34:12;;;;;;;5.43;3.05;;;23.70;99.50;;;;;;5021933;28;20026;-92
2022/08/04 04:37:00;;;;;;;7.10;2.95;;;23.70;99.30;;;;;;5029998;28;20010;-92
2022/08/04 04:39:40;;;;;;;7.25;2.88;;;23.70;99.10;;;;;;5042907;28;20037;-92
2022/08/04 04:42:29;;;;;;;6.20;2.78;;;23.70;98.90;;;;;;5025238;28;20026;-93
2022/08/04 04:45:09;;;;;;;7.30;3.25;;;23.70;99.00;;;;;;5019921;28;20022;-92
2022/08/04 04:47:53;;;;;;;5.43;3.17;;;23.60;99.10;;;;;;5020256;28;20489;-92
2022/08/04 04:51:15;;;;;;;9.35;3.42;;;23.60;99.20;;;;;;5025566;28;20034;-92
2022/08/04 04:53:54;;;;;;;7.45;3.13;;;23.60;99.10;;;;;;4986166;28;20103;-92
2022/08/04 04:56:47;;;;;;;9.23;3.60;;;23.60;99.00;;;;;;5025874;28;20029;-92
2022/08/04 04:59:20;;;;;;;6.88;3.08;;;23.60;99.10;;;;;;5020042;28;20038;-92
2022/08/04 05:02:15;;;;;;;7.18;3.10;;;23.60;99.20;;;;;;5019568;28;20097;-93
2022/08/04 05:05:11;;;;;;;6.53;3.20;;;23.60;99.20;;;;;;5017974;28;20481;-93
2022/08/04 05:07:51;;;;;;;8.25;3.60;;;23.60;99.40;;;;;;5016665;28;20018;-92
2022/08/04 05:10:50;;;;;;;6.38;3.17;;;23.60;99.50;;;;;;5018286;28;20030;-92
2022/08/04 05:13:31;;;;;;;7.15;3.15;;;23.60;99.30;;;;;;5016877;28;20033;-89
2022/08/04 05:16:06;;;;;;;5.97;2.80;;;23.60;99.40;;;;;;5017759;28;20057;-90
2022/08/04 05:18:37;;;;;;;8.82;2.80;;;23.60;99.80;;;;;;5016688;28;20057;-91
2022/08/04 05:21:37;;;;;;;6.80;2.60;;;23.60;99.70;;;;;;5016763;28;20022;-91
2022/08/04 05:24:07;;;;;;;6.80;3.10;;;23.60;99.70;;;;;;5028257;28;20181;-91
2022/08/04 05:26:38;;;;;;;7.93;3.25;;;23.60;99.80;;;;;;5016268;28;20077;-92
2022/08/04 05:29:12;;;;;;;7.45;3.53;;;23.60;99.90;;;;;;5016620;28;20044;-92
2022/08/04 05:31:46;;;;;;;6.70;3.30;;;23.60;99.90;;;;;;5016243;28;20382;-91
2022/08/04 05:34:19;;;;;;;8.85;3.03;;;23.60;99.90;;;;;;5017382;28;20467;-91
2022/08/04 05:36:50;;;;;;;8.57;3.20;;;23.70;99.90;;;;;;5020715;28;20105;-89
2022/08/04 05:39:23;;;;;;;6.82;3.15;;;23.70;99.90;;;;;;5039238;28;20030;-91
2022/08/04 05:41:50;;;;;;;7.07;3.53;;;23.70;99.90;;;;;;5030203;28;20022;-91
2022/08/04 05:44:17;;;;;;;6.93;3.10;;;23.80;99.90;;;;;;5016790;28;20034;-92
2022/08/04 05:46:47;;;;;;;5.72;3.58;;;23.80;99.90;;;;;;5017803;28;20032;-92
2022/08/04 05:49:16;;;;;;;8.77;3.17;;;23.80;99.90;;;;;;5016809;28;20022;-91
2022/08/04 05:51:45;;;;;;;9.00;3.78;;;23.90;99.90;;;;;;5020051;28;20498;-92
2022/08/04 05:54:15;;;;;;;4.57;3.00;;;23.90;99.90;;;;;;5024855;28;20033;-91
2022/08/04 05:56:45;;;;;;;8.02;3.38;;;23.90;99.90;;;;;;5016325;28;20478;-92
2022/08/04 05:59:12;;;;;;;7.32;3.00;;;24.00;99.90;;;;;;5015569;28;20033;-92
2022/08/04 06:01:40;;;;;;;5.35;3.08;;;24.00;99.90;;;;;;5016125;28;20053;-91
2022/08/04 06:04:14;;;;;;;6.45;3.45;;;24.00;99.90;;;;;;5032766;28;20030;-90
2022/08/04 06:06:44;;;;;;;7.53;3.78;;;24.00;99.90;;;;;;5015964;28;20030;-92
2022/08/04 06:09:13;;;;;;;8.73;3.60;;;24.00;99.90;;;;;;5016140;28;20125;-92
2022/08/04 06:11:43;;;;;;;6.25;3.50;;;24.10;99.90;;;;;;5016248;28;20474;-91
2022/08/04 06:14:14;;;;;;;6.18;3.33;;;24.10;99.90;;;;;;5014800;28;20034;-91
2022/08/04 06:16:42;;;;;;;7.38;3.60;;;24.10;99.90;;;;;;5016781;28;20097;-91
2022/08/04 06:19:11;;;;;;;8.20;3.20;;;24.10;99.90;;;;;;5016478;28;20030;-78
2022/08/04 06:21:41;;;;;;;5.95;3.42;;;24.10;99.90;;;;;;5014549;28;20044;-76
2022/08/04 06:24:11;;;;;;;7.68;3.72;;;24.20;99.90;;;;;;5013620;28;20026;-77
2022/08/04 06:26:39;;;;;;;8.45;3.38;;;24.20;99.90;;;;;;5014701;28;20463;-76
2022/08/04 06:29:15;;;;;;;8.30;3.72;;;24.20;99.90;;;;;;5029348;28;20037;-76
2022/08/04 06:31:45;;;;;;;9.02;4.47;;;24.20;99.90;;;;;;5014540;28;20027;-76
2022/08/04 06:34:14;;;;;;;7.93;3.83;;;24.20;99.90;;;;;;5014474;28;20478;-76
2022/08/04 06:36:41;;;;;;;7.03;3.60;;;24.20;99.90;;;;;;5014411;28;20029;-77
2022/08/04 06:39:16;;;;;;;13.27;4.95;;;24.30;99.90;;;;;;5018165;28;20026;-94
2022/08/04 06:41:50;;;;;;;8.07;3.95;;;24.30;99.90;;;;;;5018930;28;20080;-91
2022/08/04 06:44:20;;;;;;;8.05;3.75;;;24.30;99.90;;;;;;5016310;28;20037;-92
2022/08/04 06:46:47;;;;;;;;;;;24.40;99.90;;;;;;5017238;28;20071;-89
2022/08/04 06:49:13;;;;;;;5.38;3.35;;;24.40;99.90;;;;;;5016853;28;19914;-91
2022/08/04 06:51:40;;;;;;;9.07;4.03;;;24.40;99.90;;;;;;5019201;28;20026;-91
2022/08/04 06:54:09;;;;;;;10.73;3.83;;;24.40;99.90;;;;;;5020707;28;20037;-91
2022/08/04 06:56:41;;;;;;;9.00;4.30;;;24.50;99.90;;;;;;5019195;28;20034;-91
2022/08/04 07:02:39;;;;;;;9.93;3.58;;;24.50;99.80;;;;;;5032875;28;20037;-92
2022/08/04 07:05:09;;;;;;;7.55;4.20;;;24.60;99.60;;;;;;5032408;28;20044;-93
2022/08/04 07:07:46;;;;;;;7.13;3.70;;;24.60;99.40;;;;;;5032720;28;20033;-95
2022/08/04 07:10:26;;;;;;;;;;;;;;;;;;;;;
2022/08/04 07:12:56;;;;;;;7.15;4.07;;;24.60;99.40;;;;;;5033130;28;20050;-94
2022/08/04 07:15:26;;;;;;;10.35;4.28;;;24.70;99.30;;;;;;5031783;28;20025;-92
2022/08/04 07:18:17;;;;;;;7.05;3.95;;;24.70;99.20;;;;;;5029179;28;20026;-92
2022/08/04 07:20:50;;;;;;;9.30;4.47;;;24.80;99.10;;;;;;5051854;28;20024;-90
2022/08/04 07:23:24;;;;;;;7.40;3.60;;;24.80;99.00;;;;;;5038110;28;20044;-90
2022/08/04 07:25:56;;;;;;;7.70;3.70;;;24.90;99.00;;;;;;5036990;28;20101;-91
2022/08/04 07:28:25;;;;;;;8.95;3.33;;;24.90;98.90;;;;;;5031725;28;20030;-89
2022/08/04 07:30:53;;;;;;;10.77;3.67;;;24.90;98.70;;;;;;5027627;28;20038;-89
2022/08/04 07:33:21;;;;;;;7.25;2.83;;;25.00;98.50;;;;;;5031783;28;20025;-92
2022/08/04 07:36:03;;;;;;;8.63;3.40;;;25.00;98.40;;;;;;5033412;28;20033;-92
2022/08/04 07:38:31;;;;;;;9.45;3.35;;;25.10;98.20;;;;;;5034676;28;20060;-92
2022/08/04 07:41:02;;;;;;;7.68;3.42;;;25.10;98.10;;;;;;5037241;28;20014;-92
2022/08/04 07:43:32;;;;;;;7.35;3.55;;;25.20;98.00;;;;;;5037965;28;20033;-92
2022/08/04 07:45:57;;;;;;;7.78;3.10;;;25.30;97.80;;;;;;5036191;28;20033;-92
2022/08/04 07:48:23;;;;;;;10.98;3.60;;;25.30;97.60;;;;;;5036209;28;20089;-91
2022/08/04 07:50:53;;;;;;;7.18;3.03;;;25.40;97.50;;;;;;5034647;28;20042;-91
2022/08/04 07:53:22;;;;;;;11.05;3.63;;;25.40;97.70;;;;;;5034885;28;20029;-93
2022/08/04 07:55:50;;;;;;;9.30;3.63;;;25.50;97.30;;;;;;5034460;28;20026;-91
2022/08/04 07:58:18;;;;;;;7.75;3.15;;;25.50;97.00;;;;;;5036301;28;20034;-89
2022/08/04 08:00:46;;;;;;;10.45;3.20;;;25.60;96.70;;;;;;5036874;28;20038;-89
2022/08/04 08:03:23;;;;;;;7.93;2.78;;;25.60;96.60;;;;;;5037470;28;20014;-93
2022/08/04 08:05:50;;;;;;;9.43;3.13;;;25.70;96.50;;;;;;5037485;28;20021;-89
2022/08/04 08:08:16;;;;;;;6.43;2.55;;;25.80;96.50;;;;;;5036773;28;20014;-91
2022/08/04 08:10:58;;;;;;;3.88;2.20;;;25.80;96.20;;;;;;5036459;28;20049;-91
2022/08/04 08:13:27;;;;;;;7.18;2.60;;;25.90;96.10;;;;;;5037548;28;20014;-91
2022/08/04 08:15:55;;;;;;;6.80;2.60;;;25.90;95.60;;;;;;5034828;28;20008;-94
2022/08/04 08:18:21;;;;;;;5.78;2.50;;;26.00;95.40;;;;;;5084874;23;20045;-86
2022/08/04 08:20:47;;;;;;;9.77;3.15;;;26.10;95.30;;;;;;5047639;28;20029;-85
2022/08/04 08:23:12;;;;;;;7.70;3.13;;;26.20;95.20;;;;;;5055671;28;20084;-86
2022/08/04 08:25:38;;;;;;;6.28;2.63;;;26.20;95.20;;;;;;5039239;28;20089;-86
2022/08/04 08:28:05;;;;;;;7.35;2.78;;;26.30;94.90;;;;;;5038553;28;20116;-86
2022/08/04 08:30:32;;;;;;;9.80;2.97;;;26.40;95.00;;;;;;5051950;28;20392;-86
2022/08/04 08:32:59;;;;;;;6.40;2.90;;;26.50;94.90;;;;;;5052547;28;20115;-86
2022/08/04 08:35:28;;;;;;;13.15;3.85;;;26.50;94.90;;;;;;5052556;28;20104;-85
2022/08/04 08:38:01;;;;;;;7.47;3.78;;;26.60;94.80;;;;;;5053368;28;20051;-86
2022/08/04 08:40:30;;;;;;;11.15;4.03;;;26.70;94.70;;;;;;5062197;28;20457;-87
2022/08/04 08:43:16;;;;;;;8.35;3.45;;;26.80;94.70;;;;;;5059757;28;20063;-87
2022/08/04 08:46:31;;;;;;;8.63;3.85;;;26.90;94.80;;;;;;5063553;28;20032;-87
2022/08/04 08:49:21;;;;;;;7.50;3.45;;;26.90;94.70;;;;;;5076288;28;20056;-87
2022/08/04 08:52:11;;;;;;;7.13;3.28;;;27.00;94.50;;;;;;5059049;28;20031;-87
2022/08/04 08:54:59;;;;;;;7.55;3.38;;;27.00;94.50;;;;;;5058962;28;20126;-87
2022/08/04 08:58:17;;;;;;;10.07;3.58;;;27.10;94.50;;;;;;5057893;28;20025;-87
2022/08/04 09:01:01;;;;;;;8.13;3.58;;;27.10;94.50;;;;;;5056860;28;20024;-87
2022/08/04 09:03:45;;;;;;;7.30;3.78;;;27.20;94.40;;;;;;5076661;28;20017;-86
2022/08/04 09:06:41;;;;;;;6.88;3.05;;;27.20;94.20;;;;;;5043227;28;20047;-87
2022/08/04 09:09:16;;;;;;;10.93;3.22;;;27.30;94.20;;;;;;5040634;28;20021;-88
2022/08/04 09:12:03;;;;;;;8.52;3.28;;;27.40;94.20;;;;;;5058753;28;20035;-88
2022/08/04 09:14:40;;;;;;;10.32;4.15;;;27.40;94.30;;;;;;5058632;28;20547;-87
2022/08/04 09:17:17;;;;;;;6.90;3.35;;;27.50;94.20;;;;;;5055370;28;20110;-87
2022/08/04 09:20:00;;;;;;;8.25;3.75;;;27.50;94.00;;;;;;5056159;28;20063;-91
2022/08/04 09:22:40;;;;;;;9.85;4.05;;;27.50;94.00;;;;;;5072218;28;20046;-93
2022/08/04 09:25:27;;;;;;;7.35;3.42;;;27.60;94.00;;;;;;5068536;28;20048;-90
2022/08/04 09:27:54;;;;;;;10.93;4.32;;;27.70;94.10;;;;;;5055839;28;20023;-91
2022/08/04 09:30:44;;;;;;;9.77;4.03;;;27.70;94.00;;;;;;5059160;28;20048;-92
2022/08/04 09:36:54;;;;;;;9.48;3.90;;;27.80;93.90;;;;;;5064481;28;20377;-92
2022/08/04 09:39:47;;;;;;;8.88;3.90;;;27.90;93.80;;;;;;5058548;28;20487;-92
2022/08/04 09:42:40;;;;;;;7.63;3.60;;;27.90;93.90;;;;;;5048235;28;20373;-87
2022/08/04 09:45:17;;;;;;;10.70;3.65;;;27.90;93.90;;;;;;5058208;28;20462;-87
2022/08/04 09:47:58;;;;;;;11.02;4.07;;;28.00;93.80;;;;;;5057647;28;20466;-87
2022/08/04 09:50:36;;;;;;;8.10;4.10;;;28.00;93.70;;;;;;5054446;28;20144;-87
2022/08/04 09:53:47;;;;;;;7.85;3.47;;;28.10;93.50;;;;;;5058016;28;20017;-87
2022/08/04 09:56:37;;;;;;;8.80;3.25;;;28.10;93.40;;;;;;5060599;28;20107;-87
2022/08/04 09:59:14;;;;;;;10.55;3.35;;;28.20;93.40;;;;;;5055471;28;20031;-87
2022/08/04 10:01:41;;;;;;;4.90;2.90;;;28.20;93.40;;;;;;5058053;28;20412;-87
2022/08/04 10:04:13;;;;;;;8.35;2.92;;;28.20;93.30;;;;;;5024533;28;20025;-87
2022/08/04 10:07:01;;;;;;;10.35;2.50;;;28.30;93.10;;;;;;5037835;28;20106;-87
2022/08/04 10:10:11;;;;;;;7.75;2.97;;;28.40;92.80;;;;;;5057387;28;20036;-87
2022/08/04 10:13:08;;;;;;;7.90;2.10;;;28.40;92.60;;;;;;5033341;28;20022;-86
2022/08/04 10:16:12;;;;;;;7.50;2.25;;;28.40;92.20;;;;;;5001880;28;20064;-87
2022/08/04 10:19:08;;;;;;;5.63;2.35;;;28.50;92.00;;;;;;5042658;28;20051;-87
2022/08/04 10:21:46;;;;;;;4.95;2.40;;;28.50;92.10;;;;;;5056025;28;20035;-86
2022/08/04 10:24:29;;;;;;;6.60;2.20;;;28.50;91.80;;;;;;5074472;28;20095;-85
2022/08/04 10:27:01;;;;;;;5.15;2.30;;;28.50;91.40;;;;;;5056098;28;20093;-86
2022/08/04 10:29:35;;;;;;;6.45;2.22;;;28.50;91.20;;;;;;5064025;28;20024;-87
2022/08/04 10:32:19;;;;;;;6.80;2.03;;;28.50;90.90;;;;;;5058552;28;20111;-86
2022/08/04 10:35:00;;;;;;;7.32;2.42;;;28.50;90.70;;;;;;5056971;28;20111;-87
2022/08/04 10:37:54;;;;;;;9.40;2.53;;;28.50;90.50;;;;;;5058912;28;20012;-92
2022/08/04 10:40:35;;;;;;;5.70;2.15;;;28.50;90.00;;;;;;5058136;28;20074;-92
2022/08/04 10:43:40;;;;;;;6.03;2.30;;;28.50;89.60;;;;;;5053078;28;20024;-93
2022/08/04 10:46:16;;;;;;;6.65;2.50;;;28.50;89.60;;;;;;5059920;28;20035;-94
2022/08/04 10:48:42;;;;;;;9.75;3.13;;;28.50;89.50;;;;;;5059325;28;20035;-93
2022/08/04 10:51:41;;;;;;;8.10;2.45;;;28.50;89.20;;;;;;5059299;28;20102;-88
2022/08/04 10:54:10;;;;;;;10.02;2.50;;;28.50;89.90;;;;;;5053957;28;20080;-89
2022/08/04 10:56:42;;;;;;;8.30;2.67;;;28.50;89.30;;;;;;5049163;28;20016;-88
2022/08/04 10:59:15;;;;;;;8.10;2.53;;;28.40;89.30;;;;;;5053685;28;20267;-90
2022/08/04 11:01:45;;;;;;;13.20;2.83;;;28.40;90.00;;;;;;5053252;28;20029;-88
2022/08/04 11:04:28;;;;;;;13.80;2.70;;;28.40;90.30;;;;;;5057147;28;20020;-91
2022/08/04 11:06:55;;;;;;;8.38;2.85;;;28.40;91.00;;;;;;5072995;28;20027;-87
2022/08/04 11:09:21;;;;;;;11.02;3.00;;;28.30;91.10;;;;;;5056017;28;20028;-90
2022/08/04 11:12:14;;;;;;;8.43;2.65;;;28.20;91.50;;;;;;5039913;28;20481;-89
2022/08/04 11:14:58;;;;;;;6.90;2.90;;;28.10;92.00;;;;;;5074632;28;20062;-89
2022/08/04 11:17:55;;;;;;;9.52;3.53;;;27.90;92.60;;;;;;5053646;28;20503;-89
2022/08/04 11:21:00;;;;;;;10.18;3.67;;;27.90;93.70;;;;;;5048923;28;20039;-90
2022/08/04 11:23:33;;;;;;;9.93;3.65;;;27.80;94.50;;;;;;5053351;28;20117;-89
2022/08/04 11:26:12;;;;;;;6.88;3.13;;;27.70;94.50;;;;;;5053184;28;20462;-89
2022/08/04 11:28:49;;;;;;;8.32;3.15;;;27.70;95.10;;;;;;5049805;28;20095;-91
2022/08/04 11:31:18;;;;;;;12.13;4.05;;;27.60;95.60;;;;;;5050154;28;20078;-91
2022/08/04 11:34:22;;;;;;;8.25;3.10;;;27.60;95.90;;;;;;5053687;28;20032;-91
2022/08/04 11:37:32;;;;;;;12.93;3.67;;;27.60;96.60;;;;;;5002633;28;20029;-90
2022/08/04 11:40:10;;;;;;;8.02;3.05;;;27.60;96.90;;;;;;5021662;28;20141;-90
2022/08/04 11:42:40;;;;;;;7.85;3.10;;;27.60;97.30;;;;;;5053510;28;20100;-89
2022/08/04 11:45:26;;;;;;;8.00;3.65;;;27.60;97.70;;;;;;5053080;28;20025;-90
2022/08/04 11:48:00;;;;;;;8.98;3.38;;;27.60;98.30;;;;;;5049956;28;20018;-90
2022/08/04 11:50:31;;;;;;;7.18;3.25;;;27.60;98.40;;;;;;5046977;28;20021;-89
2022/08/04 11:52:58;;;;;;;11.00;3.85;;;27.60;98.60;;;;;;5043283;28;20021;-90
2022/08/04 11:55:26;;;;;;;8.07;2.95;;;27.60;98.60;;;;;;5039530;28;20033;-89
2022/08/04 11:57:57;;;;;;;7.93;2.85;;;27.60;98.60;;;;;;5048486;28;20014;-88
2022/08/04 12:00:30;;;;;;;6.72;3.33;;;27.60;98.90;;;;;;5047222;28;20033;-89
2022/08/04 12:03:19;;;;;;;5.30;3.05;;;27.60;99.30;;;;;;5054061;28;20029;-89
2022/08/04 12:06:05;;;;;;;3.97;2.70;;;27.60;99.40;;;;;;5052905;28;21891;-89
2022/08/04 12:08:57;;;;;;;6.20;2.75;;;27.60;99.50;;;;;;5049386;28;20022;-89
2022/08/04 12:11:37;;;;;;;7.60;2.88;;;27.60;99.80;;;;;;5040359;28;20075;-90
2022/08/04 12:14:11;;;;;;;8.20;2.60;;;27.50;99.80;;;;;;5056728;28;20107;-89
2022/08/04 12:16:53;;;;;;;7.80;3.33;;;27.50;99.80;;;;;;5053815;28;20022;-90
2022/08/04 12:19:44;;;;;;;7.00;3.03;;;27.50;99.90;;;;;;5059284;28;20032;-89
2022/08/04 12:22:21;;;;;;;8.35;3.13;;;27.50;99.90;;;;;;5059841;28;20064;-88
2022/08/04 12:25:02;;;;;;;7.30;2.90;;;27.50;99.90;;;;;;5056669;28;20063;-88
2022/08/04 12:27:52;;;;;;;7.07;2.80;;;27.50;99.90;;;;;;5053228;28;20055;-89
2022/08/04 12:30:19;;;;;;;9.43;3.35;;;27.50;99.90;;;;;;5048705;28;20124;-89
2022/08/04 12:33:04;;;;;;;7.50;3.33;;;27.50;99.90;;;;;;5059393;28;20442;-89
2022/08/04 12:35:52;;;;;;;6.53;3.03;;;27.50;99.90;;;;;;5073212;28;20070;-89
2022/08/04 12:38:24;;;;;;;5.22;2.97;;;27.50;99.90;;;;;;5056021;28;20365;-89
2022/08/04 12:40:54;;;;;;;7.30;2.92;;;27.50;99.90;;;;;;5058160;28;20024;-89
2022/08/04 12:43:43;;;;;;;8.73;3.45;;;27.50;99.90;;;;;;5059234;28;20025;-89
2022/08/04 12:46:12;;;;;;;7.32;2.70;;;27.50;99.90;;;;;;5049197;28;20021;-90
2022/08/04 12:48:38;;;;;;;8.13;3.50;;;27.60;99.90;;;;;;5059430;28;20012;-89
2022/08/04 12:51:08;;;;;;;8.20;2.70;;;27.60;99.90;;;;;;5059627;28;20024;-90
2022/08/04 12:53:39;;;;;;;7.95;2.83;;;27.60;99.90;;;;;;5059841;28;20119;-89
2022/08/04 12:56:08;;;;;;;6.78;2.63;;;27.60;99.90;;;;;;5056167;28;20017;-89
2022/08/04 12:58:40;;;;;;;5.25;2.40;;;27.60;99.90;;;;;;5052865;28;20024;-89
2022/08/04 13:01:28;;;;;;;4.53;2.42;;;27.70;99.90;;;;;;5059297;28;20017;-89
2022/08/04 13:04:12;;;;;;;6.95;2.88;;;27.70;99.90;;;;;;5057263;28;20036;-88
2022/08/04 13:06:40;;;;;;;6.50;2.38;;;27.70;99.90;;;;;;5067235;28;20497;-83
2022/08/04 13:09:18;;;;;;;7.70;3.30;;;27.70;99.90;;;;;;5072224;28;20039;-83
2022/08/04 13:11:49;;;;;;;6.82;2.88;;;27.70;99.90;;;;;;5058538;28;20025;-82
2022/08/04 13:14:16;;;;;;;7.97;3.15;;;27.70;99.80;;;;;;5076655;28;20074;-90
2022/08/04 13:16:42;;;;;;;5.15;2.55;;;27.70;99.30;;;;;;5055836;28;20071;-89
2022/08/04 13:19:09;;;;;;;5.32;2.65;;;27.70;99.30;;;;;;5053899;28;20044;-89
2022/08/04 13:21:41;;;;;;;9.40;3.30;;;27.70;99.50;;;;;;5051966;28;20029;-89
2022/08/04 13:24:12;;;;;;;9.65;3.42;;;27.70;99.60;;;;;;5051600;28;20036;-89
2022/08/04 13:26:52;;;;;;;7.28;2.97;;;27.70;99.60;;;;;;5062520;28;20024;-89
2022/08/04 13:29:19;;;;;;;6.50;3.40;;;27.80;99.60;;;;;;5058658;28;20036;-89
2022/08/04 13:31:45;;;;;;;5.80;3.22;;;27.80;99.60;;;;;;5052770;28;20021;-89
2022/08/04 13:34:14;;;;;;;5.80;2.70;;;27.90;99.50;;;;;;5065979;28;20078;-89
2022/08/04 13:36:42;;;;;;;9.07;3.30;;;27.90;99.00;;;;;;5053330;28;20384;-89
2022/08/04 13:39:16;;;;;;;5.38;3.00;;;27.90;98.90;;;;;;5038673;28;20036;-88
2022/08/04 13:41:47;;;;;;;5.97;3.05;;;27.90;99.00;;;;;;5057301;28;20496;-88
2022/08/04 13:44:17;;;;;;;6.40;2.88;;;28.00;98.90;;;;;;5049264;28;20029;-88
2022/08/04 13:47:00;;;;;;;5.20;2.28;;;28.00;98.70;;;;;;5036513;28;20021;-89
2022/08/04 13:49:25;;;;;;;8.68;2.50;;;28.10;98.40;;;;;;5055034;28;20501;-88
2022/08/04 13:51:54;;;;;;;4.22;2.08;;;28.10;98.10;;;;;;5033243;28;20040;-89
2022/08/04 13:54:21;;;;;;;5.15;2.20;;;28.20;98.00;;;;;;5054879;28;20013;-89
2022/08/04 13:56:54;;;;;;;4.57;2.50;;;28.20;97.80;;;;;;5047803;28;20029;-89